createdAt,value
2022-09-20T00:01:23.756Z,0.90
2022-09-20T00:03:52.171Z,1.10
2022-09-20T00:06:21.924Z,1.10
2022-09-20T00:08:48.643Z,1.45
2022-09-20T00:11:20.992Z,1.10
2022-09-20T00:13:48.635Z,0.90
2022-09-20T00:16:17.514Z,1.20
2022-09-20T00:18:44.516Z,1.00
2022-09-20T00:21:19.027Z,0.93
2022-09-20T00:23:45.910Z,1.10
2022-09-20T00:26:12.807Z,0.95
2022-09-20T00:28:39.636Z,0.98
2022-09-20T00:31:06.374Z,1.10
2022-09-20T00:33:33.066Z,1.17
2022-09-20T00:35:59.808Z,0.98
2022-09-20T00:38:26.597Z,1.10
2022-09-20T00:40:53.239Z,1.17
2022-09-20T00:43:53.069Z,1.15
2022-09-20T00:46:28.740Z,0.88
2022-09-20T00:48:59.007Z,0.90
2022-09-20T00:51:28.396Z,0.90
2022-09-20T00:53:55.025Z,1.02
2022-09-20T00:56:32.781Z,0.90
2022-09-20T00:59:24.903Z,1.10
2022-09-20T01:01:53.856Z,0.85
2022-09-20T01:04:20.625Z,0.93
2022-09-20T01:06:47.281Z,1.00
2022-09-20T01:09:14.259Z,0.98
2022-09-20T01:11:41.016Z,1.08
2022-09-20T01:14:07.599Z,1.00
2022-09-20T01:16:34.663Z,0.90
2022-09-20T01:19:06.016Z,1.13
2022-09-20T01:21:32.787Z,1.00
2022-09-20T01:24:11.465Z,1.00
2022-09-20T01:26:49.947Z,0.80
2022-09-20T01:29:28.694Z,0.75
2022-09-20T01:31:56.691Z,1.10
2022-09-20T01:34:36.916Z,1.10
2022-09-20T01:37:25.271Z,0.98
2022-09-20T01:40:21.834Z,0.90
2022-09-20T01:42:58.519Z,1.10
2022-09-20T01:45:29.698Z,1.00
2022-09-20T01:48:08.407Z,0.98
2022-09-20T01:50:38.861Z,1.10
2022-09-20T01:53:16.722Z,0.90
2022-09-20T01:55:54.590Z,1.10
2022-09-20T01:59:06.950Z,1.17
2022-09-20T02:02:11.011Z,1.02
2022-09-20T02:04:43.383Z,1.10
2022-09-20T02:07:53.330Z,1.00
2022-09-20T02:10:32.113Z,1.00
2022-09-20T02:13:27.277Z,0.90
2022-09-20T02:16:06.336Z,1.10
2022-09-20T02:19:07.182Z,1.08
2022-09-20T02:22:01.508Z,0.90
2022-09-20T02:24:58.639Z,1.00
2022-09-20T02:27:56.115Z,1.02
2022-09-20T02:30:38.851Z,0.80
2022-09-20T02:33:24.367Z,0.80
2022-09-20T02:36:06.498Z,0.90
2022-09-20T02:38:49.885Z,0.90
2022-09-20T02:41:33.645Z,1.02
2022-09-20T02:44:05.199Z,1.02
2022-09-20T02:46:59.382Z,0.80
2022-09-20T02:49:36.939Z,0.85
2022-09-20T02:52:25.350Z,1.00
2022-09-20T02:54:58.582Z,1.08
2022-09-20T02:57:38.932Z,1.05
2022-09-20T03:00:17.103Z,1.00
2022-09-20T03:03:11.043Z,0.88
2022-09-20T03:05:58.243Z,1.05
2022-09-20T03:08:36.466Z,0.85
2022-09-20T03:11:24.831Z,0.93
2022-09-20T03:14:12.257Z,0.70
2022-09-20T03:16:51.907Z,0.73
2022-09-20T03:20:03.809Z,0.88
2022-09-20T03:22:35.193Z,0.85
2022-09-20T03:25:14.856Z,0.80
2022-09-20T03:28:03.712Z,0.93
2022-09-20T03:30:58.631Z,0.85
2022-09-20T03:33:43.753Z,1.10
2022-09-20T03:36:36.165Z,0.80
2022-09-20T03:39:05.519Z,0.90
2022-09-20T03:41:40.922Z,0.80
2022-09-20T03:44:07.560Z,0.90
2022-09-20T03:46:45.604Z,0.82
2022-09-20T03:49:34.361Z,0.88
2022-09-20T03:52:28.897Z,0.80
2022-09-20T03:55:20.320Z,1.10
2022-09-20T03:58:04.735Z,0.80
2022-09-20T04:00:48.020Z,0.90
2022-09-20T04:03:39.500Z,1.10
2022-09-20T04:06:32.354Z,1.05
2022-09-20T04:09:10.609Z,0.82
2022-09-20T04:12:04.977Z,0.73
2022-09-20T04:14:45.560Z,0.80
2022-09-20T04:17:44.434Z,0.70
2022-09-20T04:20:17.947Z,0.70
2022-09-20T04:22:44.548Z,0.90
2022-09-20T04:25:44.012Z,0.80
2022-09-20T04:28:14.988Z,0.90
2022-09-20T04:30:41.776Z,0.57
2022-09-20T04:33:39.995Z,1.20
2022-09-20T04:36:46.858Z,0.90
2022-09-20T04:42:32.987Z,0.77
2022-09-20T04:47:58.185Z,0.80
2022-09-20T04:50:46.717Z,0.98
2022-09-20T04:53:22.538Z,0.93
2022-09-20T04:56:03.794Z,0.70
2022-09-20T04:59:03.237Z,0.77
2022-09-20T05:01:50.985Z,0.77
2022-09-20T05:04:55.205Z,0.90
2022-09-20T05:07:36.765Z,0.80
2022-09-20T05:10:38.413Z,0.98
2022-09-20T05:13:14.155Z,0.93
2022-09-20T05:16:03.323Z,1.17
2022-09-20T05:18:48.587Z,1.10
2022-09-20T05:21:44.084Z,1.00
2022-09-20T05:24:41.614Z,0.90
2022-09-20T05:27:26.544Z,1.17
2022-09-20T05:30:05.000Z,1.00
2022-09-20T05:33:09.510Z,1.10
2022-09-20T05:35:44.954Z,1.30
2022-09-20T05:38:35.053Z,0.88
2022-09-20T05:41:21.133Z,0.90
2022-09-20T05:43:52.821Z,0.98
2022-09-20T05:46:25.189Z,0.90
2022-09-20T05:49:00.565Z,1.20
2022-09-20T05:51:51.852Z,0.98
2022-09-20T05:54:27.389Z,1.25
2022-09-20T06:00:02.402Z,1.17
2022-09-20T06:03:00.174Z,1.33
2022-09-20T06:05:34.562Z,1.25
2022-09-20T06:08:04.075Z,1.25
2022-09-20T06:10:36.229Z,1.50
2022-09-20T06:13:20.743Z,1.10
2022-09-20T06:15:58.731Z,1.20
2022-09-20T06:18:36.783Z,1.15
2022-09-20T06:21:26.395Z,0.95
2022-09-20T06:23:57.295Z,0.90
2022-09-20T06:26:25.866Z,1.38
2022-09-20T06:28:58.245Z,1.10
2022-09-20T06:31:25.999Z,1.10
2022-09-20T06:34:07.752Z,1.00
2022-09-20T06:36:36.459Z,1.00
2022-09-20T06:39:17.249Z,1.30
2022-09-20T06:41:46.502Z,1.10
2022-09-20T06:44:13.279Z,1.08
2022-09-20T06:46:39.966Z,0.90
2022-09-20T06:49:06.729Z,1.13
2022-09-20T06:51:38.411Z,1.10
2022-09-20T06:54:06.099Z,1.25
2022-09-20T06:56:33.549Z,1.30
2022-09-20T06:59:00.291Z,1.30
2022-09-20T07:01:30.643Z,1.05
2022-09-20T07:03:58.633Z,1.10
2022-09-20T07:06:25.469Z,1.40
2022-09-20T07:08:52.459Z,1.27
2022-09-20T07:11:19.312Z,1.45
2022-09-20T07:13:49.184Z,1.90
2022-09-20T07:16:15.854Z,1.50
2022-09-20T07:18:43.263Z,1.52
2022-09-20T07:21:11.560Z,1.48
2022-09-20T07:23:38.218Z,1.33
2022-09-20T07:26:05.053Z,1.08
2022-09-20T07:28:36.283Z,1.08
2022-09-20T07:31:02.932Z,1.50
2022-09-20T07:33:29.566Z,1.55
2022-09-20T07:35:56.266Z,1.42
2022-09-20T07:38:22.939Z,1.83
2022-09-20T07:40:56.781Z,1.67
2022-09-20T07:43:25.256Z,1.48
2022-09-20T07:45:52.229Z,1.42
2022-09-20T07:48:18.926Z,1.40
2022-09-20T07:50:58.847Z,1.40
2022-09-20T07:53:25.589Z,1.50
2022-09-20T07:56:03.440Z,1.00
2022-09-20T07:58:30.755Z,0.98
2022-09-20T08:01:05.564Z,1.00
2022-09-20T08:03:32.951Z,1.10
2022-09-20T08:06:04.772Z,0.80
2022-09-20T08:08:35.515Z,1.00
2022-09-20T08:11:06.931Z,0.80
2022-09-20T08:16:28.215Z,0.82
2022-09-20T08:18:56.625Z,1.25
2022-09-20T08:21:28.768Z,0.88
2022-09-20T08:23:55.534Z,1.08
2022-09-20T08:26:23.135Z,1.17
2022-09-20T08:28:52.132Z,0.95
2022-09-20T08:31:19.817Z,0.90
2022-09-20T08:33:46.686Z,1.00
2022-09-20T08:36:21.330Z,1.00
2022-09-20T08:41:37.157Z,1.02
2022-09-20T08:44:13.168Z,1.65
2022-09-20T08:46:42.401Z,0.93
2022-09-20T08:49:11.400Z,0.85
2022-09-20T08:51:39.091Z,1.17
2022-09-20T08:54:11.389Z,0.80
2022-09-20T08:56:38.098Z,0.73
2022-09-20T08:59:05.638Z,1.08
2022-09-20T09:01:36.409Z,1.00
2022-09-20T09:04:24.425Z,1.00
2022-09-20T09:06:51.694Z,1.05
2022-09-20T09:09:25.962Z,4.45
2022-09-20T09:11:53.433Z,3.60
2022-09-20T09:14:26.004Z,1.80
2022-09-20T09:16:52.810Z,0.98
2022-09-20T09:19:26.229Z,0.95
2022-09-20T09:21:57.869Z,1.33
2022-09-20T09:24:24.482Z,1.02
2022-09-20T09:26:52.609Z,1.17
2022-09-20T09:29:20.880Z,1.08
2022-09-20T09:31:51.693Z,1.02
2022-09-20T09:34:29.202Z,1.10
2022-09-20T09:36:56.434Z,1.08
2022-09-20T09:39:33.544Z,0.98
2022-09-20T09:42:00.194Z,0.80
2022-09-20T09:44:32.108Z,1.10
2022-09-20T09:46:58.819Z,0.95
2022-09-20T09:49:29.731Z,1.00
2022-09-20T09:52:01.783Z,0.80
2022-09-20T09:54:38.400Z,0.95
2022-09-20T09:57:10.833Z,1.00
2022-09-20T09:59:40.270Z,1.02
2022-09-20T10:02:22.079Z,1.10
2022-09-20T10:05:13.657Z,0.70
2022-09-20T10:07:59.353Z,0.90
2022-09-20T10:10:34.743Z,0.85
2022-09-20T10:15:37.961Z,0.70
2022-09-20T10:18:26.388Z,0.70
2022-09-20T10:21:14.408Z,1.02
2022-09-20T10:24:04.919Z,0.80
2022-09-20T10:26:50.206Z,0.70
2022-09-20T10:29:35.571Z,0.80
2022-09-20T10:32:04.910Z,0.88
2022-09-20T10:34:40.661Z,1.00
2022-09-20T10:37:54.846Z,1.00
2022-09-20T10:40:24.398Z,0.90
2022-09-20T10:42:55.904Z,1.05
2022-09-20T10:46:20.593Z,0.93
2022-09-20T10:48:46.667Z,1.02
2022-09-20T10:51:53.790Z,0.63
2022-09-20T10:54:33.935Z,0.90
2022-09-20T10:57:25.943Z,0.80
2022-09-20T11:00:18.984Z,0.70
2022-09-20T11:03:10.997Z,1.25
2022-09-20T11:05:53.506Z,0.90
2022-09-20T11:08:20.804Z,0.70
2022-09-20T11:10:50.981Z,0.68
2022-09-20T11:13:42.269Z,0.70
2022-09-20T11:16:19.912Z,0.80
2022-09-20T11:18:59.191Z,0.90
2022-09-20T11:21:31.022Z,0.60
2022-09-20T11:24:02.426Z,1.92
2022-09-20T11:26:35.037Z,1.20
2022-09-20T11:29:33.471Z,1.10
2022-09-20T11:32:06.548Z,2.35
2022-09-20T11:34:34.957Z,2.00
2022-09-20T11:37:01.894Z,1.58
2022-09-20T11:39:53.492Z,1.30
2022-09-20T11:42:22.436Z,1.15
2022-09-20T11:44:49.083Z,2.17
2022-09-20T11:47:52.895Z,1.80
2022-09-20T11:50:41.669Z,1.30
2022-09-20T11:53:26.389Z,1.00
2022-09-20T11:56:03.897Z,0.90
2022-09-20T11:58:30.618Z,1.10
2022-09-20T12:00:59.861Z,0.90
2022-09-20T12:03:36.724Z,1.00
2022-09-20T12:06:09.349Z,0.90
2022-09-20T12:08:37.833Z,1.40
2022-09-20T12:11:09.611Z,1.05
2022-09-20T12:13:38.790Z,0.68
2022-09-20T12:16:06.913Z,0.77
2022-09-20T12:18:53.408Z,1.05
2022-09-20T12:21:20.508Z,3.40
2022-09-20T12:23:53.204Z,3.25
2022-09-20T12:26:22.412Z,2.88
2022-09-20T12:28:50.389Z,2.17
2022-09-20T12:31:19.859Z,1.77
2022-09-20T12:33:58.755Z,2.95
2022-09-20T12:36:26.386Z,2.53
2022-09-20T12:39:02.509Z,2.95
2022-09-20T12:41:29.273Z,2.90
2022-09-20T12:44:00.967Z,1.73
2022-09-20T12:46:55.175Z,1.15
2022-09-20T12:49:52.552Z,1.75
2022-09-20T12:52:26.055Z,1.15
2022-09-20T12:54:52.933Z,1.20
2022-09-20T12:57:30.692Z,2.00
2022-09-20T12:59:58.685Z,1.70
2022-09-20T13:03:01.162Z,1.70
2022-09-20T13:05:40.624Z,1.77
2022-09-20T13:08:14.573Z,1.65
2022-09-20T13:10:46.636Z,1.85
2022-09-20T13:13:35.550Z,1.48
2022-09-20T13:16:02.417Z,1.58
2022-09-20T13:18:29.006Z,1.90
2022-09-20T13:20:56.396Z,2.60
2022-09-20T13:23:27.554Z,3.08
2022-09-20T13:25:55.612Z,3.65
2022-09-20T13:28:26.637Z,2.20
2022-09-20T13:31:16.212Z,3.22
2022-09-20T13:33:42.883Z,1.40
2022-09-20T13:36:09.917Z,1.90
2022-09-20T13:38:36.529Z,1.15
2022-09-20T13:41:07.562Z,2.53
2022-09-20T13:43:40.854Z,1.58
2022-09-20T13:46:09.512Z,1.00
2022-09-20T13:48:36.274Z,1.38
2022-09-20T13:51:02.986Z,1.55
2022-09-20T13:53:45.042Z,2.00
2022-09-20T13:56:16.449Z,2.13
2022-09-20T13:58:43.066Z,2.38
2022-09-20T14:01:29.643Z,2.65
2022-09-20T14:04:29.618Z,2.55
2022-09-20T14:06:57.608Z,2.00
2022-09-20T14:09:30.120Z,1.40
2022-09-20T14:11:57.187Z,2.38
2022-09-20T14:14:24.330Z,0.90
2022-09-20T14:16:51.040Z,1.08
2022-09-20T14:19:18.973Z,0.82
2022-09-20T14:21:45.639Z,0.77
2022-09-20T14:24:15.154Z,0.68
2022-09-20T14:26:42.572Z,0.52
2022-09-20T14:29:34.204Z,0.50
2022-09-20T14:32:06.153Z,0.60
2022-09-20T14:34:36.332Z,0.63
2022-09-20T14:37:27.649Z,0.50
2022-09-20T14:39:59.212Z,1.05
2022-09-20T14:43:01.965Z,1.08
2022-09-20T14:45:33.237Z,0.80
2022-09-20T14:48:10.139Z,0.70
2022-09-20T14:50:42.193Z,0.90
2022-09-20T14:53:11.680Z,0.82
2022-09-20T14:55:57.130Z,0.80
2022-09-20T14:58:24.215Z,1.10
2022-09-20T15:00:52.622Z,1.10
2022-09-20T15:03:34.092Z,0.88
2022-09-20T15:06:00.800Z,1.40
2022-09-20T15:08:27.498Z,1.13
2022-09-20T15:10:54.168Z,1.50
2022-09-20T15:13:20.785Z,1.00
2022-09-20T15:15:51.073Z,1.20
2022-09-20T15:18:25.608Z,1.00
2022-09-20T15:20:53.080Z,1.00
2022-09-20T15:23:19.759Z,0.90
2022-09-20T15:25:49.055Z,0.80
2022-09-20T15:28:16.211Z,0.90
2022-09-20T15:30:44.448Z,0.70
2022-09-20T15:33:11.528Z,0.98
2022-09-20T15:35:39.379Z,0.80
2022-09-20T15:38:06.280Z,1.00
2022-09-20T15:40:33.478Z,1.27
2022-09-20T15:43:00.229Z,0.80
2022-09-20T15:45:26.987Z,0.82
2022-09-20T15:47:53.949Z,1.00
2022-09-20T15:50:20.607Z,0.70
2022-09-20T15:52:47.398Z,0.70
2022-09-20T15:55:14.032Z,0.80
2022-09-20T15:57:40.692Z,0.52
2022-09-20T16:00:09.802Z,0.55
2022-09-20T16:02:36.466Z,0.70
2022-09-20T16:05:03.504Z,0.60
2022-09-20T16:07:30.101Z,0.70
2022-09-20T16:09:56.872Z,0.80
2022-09-20T16:12:24.382Z,0.80
2022-09-20T16:14:51.031Z,0.80
2022-09-20T16:17:17.884Z,0.80
2022-09-20T16:19:44.536Z,0.70
2022-09-20T16:22:11.300Z,0.68
2022-09-20T16:24:37.983Z,0.75
2022-09-20T16:27:06.185Z,0.75
2022-09-20T16:29:33.669Z,0.82
2022-09-20T16:32:00.989Z,0.60
2022-09-20T16:34:29.372Z,0.85
2022-09-20T16:36:57.583Z,0.80
2022-09-20T16:39:24.376Z,1.27
2022-09-20T16:41:51.152Z,1.35
2022-09-20T16:44:17.874Z,1.33
2022-09-20T16:46:44.621Z,1.42
2022-09-20T16:49:11.371Z,1.20
2022-09-20T16:51:41.594Z,1.30
2022-09-20T16:54:10.094Z,0.90
2022-09-20T16:56:36.679Z,1.08
2022-09-20T16:59:04.478Z,0.80
2022-09-20T17:01:31.234Z,0.70
2022-09-20T17:03:58.511Z,0.80
2022-09-20T17:06:25.408Z,0.85
2022-09-20T17:08:58.132Z,1.08
2022-09-20T17:11:30.141Z,1.20
2022-09-20T17:13:57.330Z,0.93
2022-09-20T17:16:28.593Z,1.40
2022-09-20T17:18:59.768Z,1.10
2022-09-20T17:21:26.944Z,0.88
2022-09-20T17:23:56.023Z,0.80
2022-09-20T17:26:24.789Z,0.60
2022-09-20T17:28:52.808Z,0.70
2022-09-20T17:31:20.542Z,0.82
2022-09-20T17:33:47.554Z,0.60
2022-09-20T17:36:16.110Z,0.50
2022-09-20T17:38:42.839Z,0.70
2022-09-20T17:41:14.403Z,0.90
2022-09-20T17:43:41.264Z,0.77
2022-09-20T17:46:11.284Z,0.95
2022-09-20T17:48:38.025Z,0.60
2022-09-20T17:51:07.231Z,0.80
2022-09-20T17:53:35.965Z,0.80
2022-09-20T17:56:02.901Z,0.70
2022-09-20T17:58:29.789Z,0.85
2022-09-20T18:01:02.500Z,0.98
2022-09-20T18:03:29.207Z,0.93
2022-09-20T18:05:55.889Z,0.95
2022-09-20T18:08:22.490Z,0.90
2022-09-20T18:10:56.527Z,0.95
2022-09-20T18:13:23.295Z,1.10
2022-09-20T18:15:50.253Z,0.90
2022-09-20T18:18:16.893Z,0.80
2022-09-20T18:20:43.621Z,0.80
2022-09-20T18:23:10.268Z,0.70
2022-09-20T18:25:36.940Z,0.60
2022-09-20T18:28:03.491Z,0.65
2022-09-20T18:30:30.119Z,0.60
2022-09-20T18:32:56.798Z,0.70
2022-09-20T18:35:23.462Z,0.77
2022-09-20T18:37:50.424Z,0.70
2022-09-20T18:40:17.373Z,0.80
2022-09-20T18:42:44.098Z,0.80
2022-09-20T18:45:11.968Z,0.73
2022-09-20T18:47:38.587Z,0.70
2022-09-20T18:50:05.892Z,0.60
2022-09-20T18:52:33.085Z,0.65
2022-09-20T18:54:59.740Z,0.80
2022-09-20T18:57:26.575Z,0.70
2022-09-20T18:59:55.191Z,1.00
2022-09-20T19:02:33.588Z,0.70
2022-09-20T19:05:14.234Z,0.68
2022-09-20T19:07:47.407Z,0.60
2022-09-20T19:10:39.081Z,0.60
2022-09-20T19:13:19.054Z,0.80
2022-09-20T19:15:59.957Z,0.60
2022-09-20T19:18:57.346Z,0.70
2022-09-20T19:21:33.373Z,0.50
2022-09-20T19:24:20.651Z,0.60
2022-09-20T19:26:47.504Z,0.70
2022-09-20T19:29:22.068Z,0.70
2022-09-20T19:31:49.872Z,0.90
2022-09-20T19:34:24.115Z,0.70
2022-09-20T19:37:16.472Z,0.77
2022-09-20T19:40:14.595Z,0.75
2022-09-20T19:43:06.340Z,0.70
2022-09-20T19:45:40.579Z,0.77
2022-09-20T19:48:40.100Z,0.70
2022-09-20T19:51:10.549Z,0.90
2022-09-20T19:53:38.157Z,0.82
2022-09-20T19:56:13.918Z,0.90
2022-09-20T19:58:40.800Z,0.75
2022-09-20T20:01:08.125Z,0.70
2022-09-20T20:03:35.169Z,0.68
2022-09-20T20:06:29.205Z,0.90
2022-09-20T20:09:01.132Z,0.85
2022-09-20T20:11:51.287Z,0.80
2022-09-20T20:14:32.996Z,0.70
2022-09-20T20:17:14.792Z,0.77
2022-09-20T20:19:54.021Z,0.73
2022-09-20T20:22:39.047Z,0.90
2022-09-20T20:25:15.953Z,0.90
2022-09-20T20:27:42.923Z,0.80
2022-09-20T20:30:10.956Z,0.68
2022-09-20T20:32:37.924Z,0.73
2022-09-20T20:35:04.959Z,1.00
2022-09-20T20:37:31.639Z,0.70
2022-09-20T20:39:58.339Z,0.88
2022-09-20T20:42:25.905Z,0.90
2022-09-20T20:44:52.516Z,0.95
2022-09-20T20:47:19.233Z,0.70
2022-09-20T20:49:48.487Z,0.85
2022-09-20T20:52:18.690Z,0.80
2022-09-20T20:54:45.302Z,1.00
2022-09-20T20:57:11.881Z,0.80
2022-09-20T20:59:38.570Z,0.80
2022-09-20T21:02:08.011Z,0.70
2022-09-20T21:04:34.988Z,0.88
2022-09-20T21:07:01.693Z,0.80
2022-09-20T21:09:28.347Z,0.70
2022-09-20T21:11:55.002Z,0.73
2022-09-20T21:14:21.674Z,0.70
2022-09-20T21:16:48.296Z,0.80
2022-09-20T21:19:15.041Z,0.80
2022-09-20T21:21:42.880Z,0.70
2022-09-20T21:24:11.005Z,0.80
2022-09-20T21:26:37.762Z,0.80
2022-09-20T21:29:08.491Z,0.80
2022-09-20T21:31:36.471Z,0.73
2022-09-20T21:34:04.737Z,0.80
2022-09-20T21:36:31.350Z,0.70
2022-09-20T21:38:57.984Z,0.90
2022-09-20T21:41:25.928Z,0.80
2022-09-20T21:43:53.618Z,0.85
2022-09-20T21:46:22.858Z,0.80
2022-09-20T21:48:50.213Z,0.65
2022-09-20T21:51:17.939Z,0.80
2022-09-20T21:53:45.109Z,0.85
2022-09-20T21:56:12.809Z,0.75
2022-09-20T21:58:40.073Z,1.00
2022-09-20T22:01:08.607Z,0.70
2022-09-20T22:03:36.702Z,0.70
2022-09-20T22:06:06.489Z,0.73
2022-09-20T22:08:33.126Z,0.80
2022-09-20T22:11:00.022Z,0.70
2022-09-20T22:13:26.603Z,0.70
2022-09-20T22:15:53.323Z,0.80
2022-09-20T22:18:19.986Z,0.80
2022-09-20T22:20:46.589Z,0.82
2022-09-20T22:23:13.348Z,0.82
2022-09-20T22:25:39.932Z,0.75
2022-09-20T22:28:06.522Z,0.80
2022-09-20T22:30:33.537Z,0.70
2022-09-20T22:33:00.242Z,0.90
2022-09-20T22:35:27.839Z,0.85
2022-09-20T22:37:56.217Z,0.88
2022-09-20T22:40:22.844Z,0.80
2022-09-20T22:42:49.502Z,0.98
2022-09-20T22:45:16.168Z,0.68
2022-09-20T22:47:43.906Z,0.88
2022-09-20T22:50:10.519Z,0.70
2022-09-20T22:52:37.201Z,0.77
2022-09-20T22:55:04.034Z,0.75
2022-09-20T22:57:30.714Z,0.70
2022-09-20T22:59:57.420Z,0.80
2022-09-20T23:02:24.035Z,0.90
2022-09-20T23:04:50.614Z,0.90
2022-09-20T23:07:17.294Z,0.80
2022-09-20T23:09:43.935Z,0.85
2022-09-20T23:12:10.598Z,0.80
2022-09-20T23:14:37.218Z,0.70
2022-09-20T23:17:03.925Z,0.70
2022-09-20T23:19:30.486Z,0.60
2022-09-20T23:21:57.174Z,0.88
2022-09-20T23:24:23.825Z,0.70
2022-09-20T23:26:50.468Z,0.90
2022-09-20T23:29:17.438Z,0.80
2022-09-20T23:31:46.368Z,0.75
2022-09-20T23:34:13.534Z,0.80
2022-09-20T23:36:40.450Z,0.75
2022-09-20T23:39:07.554Z,0.80
2022-09-20T23:41:34.278Z,0.90
2022-09-20T23:44:00.992Z,0.80
2022-09-20T23:46:27.839Z,0.70
2022-09-20T23:48:54.445Z,0.70
2022-09-20T23:51:22.534Z,0.77
2022-09-20T23:53:49.466Z,0.70
2022-09-20T23:56:16.084Z,0.80
2022-09-20T23:58:43.175Z,0.70
